createdAt,value
2023-05-01T00:01:48.318Z,101318.41
2023-05-01T00:04:18.062Z,101326.72
2023-05-01T00:06:47.655Z,101309.31
2023-05-01T00:09:17.146Z,101314.19
2023-05-01T00:11:46.619Z,101313.16
2023-05-01T00:14:16.152Z,101308.97
2023-05-01T00:16:49.121Z,101292.38
2023-05-01T00:19:19.441Z,101292.91
2023-05-01T00:21:49.126Z,101297.13
2023-05-01T00:24:18.936Z,101304.22
2023-05-01T00:26:48.477Z,101308.13
2023-05-01T00:29:17.986Z,101292.91
2023-05-01T00:31:50.120Z,101284.13
2023-05-01T00:34:19.981Z,101288.16
2023-05-01T00:36:50.010Z,101286.31
2023-05-01T00:39:19.695Z,101280.69
2023-05-01T00:41:49.168Z,101268.72
2023-05-01T00:44:18.972Z,101245.19
2023-05-01T00:46:51.256Z,101274.94
2023-05-01T00:49:20.889Z,101271.94
2023-05-01T00:51:54.693Z,101261.09
2023-05-01T00:54:25.402Z,101250.59
2023-05-01T00:56:55.547Z,101261.56
2023-05-01T00:59:25.583Z,101269.00
2023-05-01T01:01:57.618Z,101262.75
2023-05-01T01:04:28.893Z,101264.97
2023-05-01T01:07:11.562Z,101260.06
2023-05-01T01:09:49.267Z,101261.25
2023-05-01T01:12:27.694Z,101245.88
2023-05-01T01:15:05.712Z,101263.44
2023-05-01T01:17:45.283Z,101253.97
2023-05-01T01:20:32.233Z,101255.13
2023-05-01T01:23:27.424Z,101251.06
2023-05-01T01:26:15.853Z,101243.97
2023-05-01T01:29:19.235Z,101249.88
2023-05-01T01:31:55.988Z,101247.50
2023-05-01T01:34:35.868Z,101245.47
2023-05-01T01:37:10.846Z,101242.97
2023-05-01T01:39:46.383Z,101230.97
2023-05-01T01:42:21.149Z,101226.56
2023-05-01T01:44:55.420Z,101226.56
2023-05-01T01:47:32.549Z,101222.53
2023-05-01T01:50:09.741Z,101225.91
2023-05-01T01:52:41.634Z,101212.06
2023-05-01T01:55:14.538Z,101206.69
2023-05-01T01:57:47.655Z,101203.81
2023-05-01T02:00:18.162Z,101206.53
2023-05-01T02:02:52.875Z,101196.72
2023-05-01T02:05:28.606Z,101201.09
2023-05-01T02:07:59.176Z,101204.13
2023-05-01T02:10:31.622Z,101194.31
2023-05-01T02:13:02.770Z,101200.44
2023-05-01T02:15:34.180Z,101196.72
2023-05-01T02:18:05.598Z,101184.19
2023-05-01T02:20:40.362Z,101192.44
2023-05-01T02:23:10.581Z,101175.28
2023-05-01T02:25:42.284Z,101178.13
2023-05-01T02:28:16.307Z,101175.41
2023-05-01T02:30:47.288Z,101170.16
2023-05-01T02:33:16.768Z,101158.56
2023-05-01T02:35:49.698Z,101154.16
2023-05-01T02:38:21.503Z,101150.59
2023-05-01T02:40:54.812Z,101142.31
2023-05-01T02:43:25.178Z,101129.88
2023-05-01T02:45:56.396Z,101133.22
2023-05-01T02:48:29.806Z,101136.75
2023-05-01T02:51:04.199Z,101134.22
2023-05-01T02:53:35.276Z,101138.59
2023-05-01T02:56:13.416Z,101128.81
2023-05-01T02:58:44.575Z,101132.66
2023-05-01T03:01:14.275Z,101134.19
2023-05-01T03:03:43.872Z,101137.00
2023-05-01T03:06:16.775Z,101126.41
2023-05-01T03:08:47.686Z,101124.88
2023-05-01T03:11:17.371Z,101123.34
2023-05-01T03:13:47.708Z,101132.78
2023-05-01T03:16:17.284Z,101130.22
2023-05-01T03:18:47.028Z,101122.84
2023-05-01T03:21:19.035Z,101122.47
2023-05-01T03:23:49.214Z,101117.91
2023-05-01T03:26:18.722Z,101112.38
2023-05-01T03:28:48.369Z,101109.97
2023-05-01T03:31:17.924Z,101109.03
2023-05-01T03:33:48.071Z,101110.50
2023-05-01T03:36:22.179Z,101104.75
2023-05-01T03:38:52.768Z,101101.22
2023-05-01T03:41:57.608Z,101090.28
2023-05-01T03:44:29.428Z,101089.28
2023-05-01T03:46:59.138Z,101092.00
2023-05-01T03:49:31.290Z,101083.72
2023-05-01T03:52:03.386Z,101079.31
2023-05-01T03:54:32.903Z,101076.59
2023-05-01T03:57:16.778Z,101079.25
2023-05-01T03:59:46.660Z,101083.34
2023-05-01T04:02:16.471Z,101075.75
2023-05-01T04:04:48.047Z,101074.03
2023-05-01T04:07:20.242Z,101077.59
2023-05-01T04:09:52.051Z,101065.09
2023-05-01T04:12:21.924Z,101064.97
2023-05-01T04:14:51.405Z,101064.63
2023-05-01T04:17:21.063Z,101058.19
2023-05-01T04:19:50.590Z,101057.69
2023-05-01T04:22:22.848Z,101059.03
2023-05-01T04:24:53.097Z,101056.16
2023-05-01T04:27:22.685Z,101058.34
2023-05-01T04:29:52.422Z,101052.59
2023-05-01T04:32:21.917Z,101057.47
2023-05-01T04:34:51.389Z,101054.09
2023-05-01T04:37:23.572Z,101053.94
2023-05-01T04:39:54.145Z,101056.31
2023-05-01T04:42:24.798Z,101049.78
2023-05-01T04:44:54.284Z,101051.31
2023-05-01T04:47:23.915Z,101051.28
2023-05-01T04:49:53.536Z,101050.09
2023-05-01T04:52:25.844Z,101048.53
2023-05-01T04:55:00.136Z,101054.31
2023-05-01T04:57:32.293Z,101049.94
2023-05-01T05:00:04.099Z,101045.19
2023-05-01T05:02:37.026Z,101049.38
2023-05-01T05:05:06.996Z,101055.97
2023-05-01T05:07:39.083Z,101043.84
2023-05-01T05:10:34.517Z,101048.53
2023-05-01T05:13:17.706Z,101047.88
2023-05-01T05:15:48.948Z,101054.47
2023-05-01T05:18:21.208Z,101045.38
2023-05-01T05:20:50.766Z,101048.91
2023-05-01T05:23:23.183Z,101048.19
2023-05-01T05:25:52.861Z,101055.97
2023-05-01T05:28:22.439Z,101045.91
2023-05-01T05:30:52.395Z,101040.97
2023-05-01T05:33:25.180Z,101051.31
2023-05-01T05:35:55.054Z,101041.38
2023-05-01T05:38:31.426Z,101039.50
2023-05-01T05:41:02.107Z,101042.22
2023-05-01T05:43:33.306Z,101042.72
2023-05-01T05:46:03.192Z,101042.88
2023-05-01T05:48:35.375Z,101041.22
2023-05-01T05:51:05.011Z,101036.16
2023-05-01T05:53:37.370Z,101035.84
2023-05-01T05:56:07.511Z,101034.16
2023-05-01T05:58:37.125Z,101025.09
2023-05-01T06:01:07.254Z,101033.50
2023-05-01T06:03:38.621Z,101025.75
2023-05-01T06:06:08.747Z,101025.94
2023-05-01T06:08:40.957Z,101018.16
2023-05-01T06:11:13.920Z,101024.41
2023-05-01T06:13:43.461Z,101016.84
2023-05-01T06:16:13.109Z,101019.88
2023-05-01T06:18:44.511Z,101020.56
2023-05-01T06:21:15.769Z,101022.06
2023-05-01T06:23:48.851Z,101010.94
2023-05-01T06:26:44.739Z,101015.66
2023-05-01T06:29:14.311Z,101011.59
2023-05-01T06:31:43.872Z,101014.97
2023-05-01T06:34:13.444Z,101018.00
2023-05-01T06:36:53.660Z,101006.53
2023-05-01T06:39:25.828Z,101003.00
2023-05-01T06:41:55.948Z,101001.47
2023-05-01T06:44:34.055Z,100998.25
2023-05-01T06:47:04.777Z,100996.41
2023-05-01T06:49:34.467Z,100993.69
2023-05-01T06:52:04.435Z,100990.13
2023-05-01T06:54:36.679Z,100990.13
2023-05-01T06:57:06.237Z,100990.78
2023-05-01T06:59:36.739Z,100985.53
2023-05-01T07:02:06.384Z,100986.06
2023-05-01T07:04:36.025Z,100981.31
2023-05-01T07:07:05.898Z,100983.66
2023-05-01T07:09:38.898Z,100975.69
2023-05-01T07:12:09.000Z,100976.72
2023-05-01T07:14:38.638Z,100979.91
2023-05-01T07:17:09.126Z,100973.81
2023-05-01T07:19:38.986Z,100968.91
2023-05-01T07:22:08.538Z,100967.00
2023-05-01T07:24:40.674Z,100971.25
2023-05-01T07:27:10.365Z,100969.72
2023-05-01T07:29:41.196Z,100964.63
2023-05-01T07:32:10.786Z,100957.78
2023-05-01T07:34:40.401Z,100951.53
2023-05-01T07:37:09.859Z,100952.34
2023-05-01T07:39:41.939Z,100955.88
2023-05-01T07:42:11.465Z,100953.50
2023-05-01T07:44:41.167Z,100954.94
2023-05-01T07:47:10.763Z,100950.22
2023-05-01T07:49:41.439Z,100952.56
2023-05-01T07:52:11.167Z,100960.06
2023-05-01T07:54:43.224Z,100952.13
2023-05-01T07:57:12.786Z,100948.16
2023-05-01T07:59:42.292Z,100950.50
2023-05-01T08:02:11.999Z,100948.09
2023-05-01T08:04:41.898Z,100937.50
2023-05-01T08:07:11.488Z,100930.28
2023-05-01T08:09:43.598Z,100928.06
2023-05-01T08:12:13.136Z,100933.09
2023-05-01T08:14:42.694Z,100932.38
2023-05-01T08:17:12.219Z,100931.34
2023-05-01T08:19:41.711Z,100921.44
2023-05-01T08:22:11.346Z,100924.16
2023-05-01T08:24:44.136Z,100922.59
2023-05-01T08:27:13.448Z,100921.38
2023-05-01T08:29:42.945Z,100913.28
2023-05-01T08:32:12.480Z,100909.56
2023-05-01T08:34:41.981Z,100914.59
2023-05-01T08:37:11.677Z,100918.44
2023-05-01T08:39:43.940Z,100912.72
2023-05-01T08:42:13.726Z,100917.94
2023-05-01T08:44:44.046Z,100909.91
2023-05-01T08:47:18.156Z,100909.19
2023-05-01T08:49:48.988Z,100907.22
2023-05-01T08:52:18.809Z,100912.94
2023-05-01T08:54:54.759Z,100906.66
2023-05-01T08:57:25.463Z,100903.38
2023-05-01T08:59:58.835Z,100909.09
2023-05-01T09:02:30.635Z,100902.94
2023-05-01T09:05:03.977Z,100900.25
2023-05-01T09:07:33.748Z,100897.28
2023-05-01T09:10:06.128Z,100898.53
2023-05-01T09:12:37.150Z,100895.28
2023-05-01T09:15:08.087Z,100900.94
2023-05-01T09:17:38.788Z,100896.63
2023-05-01T09:20:10.121Z,100890.78
2023-05-01T09:22:39.681Z,100892.88
2023-05-01T09:25:13.134Z,100884.69
2023-05-01T09:27:42.622Z,100886.56
2023-05-01T09:30:13.158Z,100882.72
2023-05-01T09:32:42.928Z,100874.44
2023-05-01T09:35:14.338Z,100876.88
2023-05-01T09:37:45.563Z,100872.84
2023-05-01T09:40:19.027Z,100875.75
2023-05-01T09:42:53.153Z,100873.75
2023-05-01T09:45:23.611Z,100867.09
2023-05-01T09:47:54.052Z,100862.13
2023-05-01T09:50:34.555Z,100857.94
2023-05-01T09:53:05.365Z,100864.03
2023-05-01T09:55:38.099Z,100862.19
2023-05-01T09:58:07.965Z,100863.25
2023-05-01T10:00:51.584Z,100853.50
2023-05-01T10:03:21.358Z,100858.41
2023-05-01T10:05:51.025Z,100850.13
2023-05-01T10:08:20.527Z,100855.56
2023-05-01T10:11:02.738Z,100835.00
2023-05-01T10:13:32.361Z,100851.09
2023-05-01T10:16:07.537Z,100846.47
2023-05-01T10:18:37.965Z,100842.03
2023-05-01T10:21:07.974Z,100849.38
2023-05-01T10:23:37.520Z,100838.75
2023-05-01T10:26:12.118Z,100842.94
2023-05-01T10:28:41.903Z,100837.41
2023-05-01T10:31:13.271Z,100834.03
2023-05-01T10:33:43.434Z,100822.31
2023-05-01T10:36:18.431Z,100815.69
2023-05-01T10:38:48.627Z,100819.47
2023-05-01T10:41:40.775Z,100817.41
2023-05-01T10:44:23.332Z,100815.31
2023-05-01T10:46:53.056Z,100807.81
2023-05-01T10:49:22.934Z,100807.22
2023-05-01T10:52:03.880Z,100809.72
2023-05-01T10:54:33.663Z,100808.66
2023-05-01T10:57:06.687Z,100807.00
2023-05-01T11:00:06.548Z,100798.34
2023-05-01T11:02:36.077Z,100802.78
2023-05-01T11:05:05.809Z,100790.00
2023-05-01T11:07:35.860Z,100790.34
2023-05-01T11:10:05.376Z,100787.88
2023-05-01T11:12:55.908Z,100788.19
2023-05-01T11:15:29.556Z,100778.38
2023-05-01T11:17:59.955Z,100779.44
2023-05-01T11:20:53.547Z,100781.69
2023-05-01T11:23:25.695Z,100769.50
2023-05-01T11:26:07.440Z,100774.06
2023-05-01T11:28:41.212Z,100782.50
2023-05-01T11:31:11.663Z,100768.28
2023-05-01T11:33:41.385Z,100766.94
2023-05-01T11:36:11.035Z,100772.97
2023-05-01T11:38:40.596Z,100765.13
2023-05-01T11:41:10.505Z,100769.13
2023-05-01T11:43:55.061Z,100763.81
2023-05-01T11:46:28.008Z,100764.97
2023-05-01T11:48:57.861Z,100763.41
2023-05-01T11:51:28.279Z,100748.19
2023-05-01T11:54:02.112Z,100743.44
2023-05-01T11:56:32.280Z,100737.84
2023-05-01T11:59:12.908Z,100728.53
2023-05-01T12:01:44.616Z,100736.19
2023-05-01T12:04:15.376Z,100736.97
2023-05-01T12:06:46.695Z,100728.75
2023-05-01T12:09:20.562Z,100735.53
2023-05-01T12:11:53.705Z,100744.25
2023-05-01T12:14:25.879Z,100739.91
2023-05-01T12:16:55.722Z,100733.91
2023-05-01T12:19:26.051Z,100733.78
2023-05-01T12:22:09.000Z,100741.50
2023-05-01T12:24:39.416Z,100738.41
2023-05-01T12:27:09.684Z,100727.84
2023-05-01T12:29:47.366Z,100733.09
2023-05-01T12:32:17.180Z,100727.63
2023-05-01T12:34:46.987Z,100724.97
2023-05-01T12:37:16.710Z,100717.13
2023-05-01T12:39:47.238Z,100718.81
2023-05-01T12:42:18.207Z,100719.88
2023-05-01T12:44:50.400Z,100717.84
2023-05-01T12:47:19.979Z,100713.97
2023-05-01T12:49:49.723Z,100715.91
2023-05-01T12:52:19.185Z,100717.78
2023-05-01T12:54:48.774Z,100713.81
2023-05-01T12:57:19.573Z,100704.28
2023-05-01T13:00:02.742Z,100687.38
2023-05-01T13:02:33.615Z,100704.84
2023-05-01T13:05:09.149Z,100699.84
2023-05-01T13:07:40.127Z,100700.41
2023-05-01T13:10:10.428Z,100695.63
2023-05-01T13:12:47.549Z,100701.13
2023-05-01T13:15:26.001Z,100701.47
2023-05-01T13:17:55.745Z,100683.63
2023-05-01T13:20:29.628Z,100687.19
2023-05-01T13:22:59.161Z,100683.75
2023-05-01T13:25:28.721Z,100688.16
2023-05-01T13:27:58.298Z,100680.69
2023-05-01T13:30:37.872Z,100685.69
2023-05-01T13:33:08.791Z,100681.00
2023-05-01T13:35:39.356Z,100684.47
2023-05-01T13:38:13.521Z,100683.28
2023-05-01T13:40:43.506Z,100687.56
2023-05-01T13:43:17.681Z,100686.63
2023-05-01T13:45:50.006Z,100678.84
2023-05-01T13:48:21.300Z,100688.63
2023-05-01T13:50:50.720Z,100681.97
2023-05-01T13:53:20.281Z,100680.19
2023-05-01T13:55:49.733Z,100673.44
2023-05-01T13:58:19.236Z,100671.53
2023-05-01T14:00:51.314Z,100679.53
2023-05-01T14:03:21.057Z,100673.91
2023-05-01T14:05:51.213Z,100669.59
2023-05-01T14:08:23.789Z,100667.94
2023-05-01T14:10:53.095Z,100665.69
2023-05-01T14:13:22.521Z,100658.16
2023-05-01T14:15:54.575Z,100660.38
2023-05-01T14:18:24.080Z,100654.75
2023-05-01T14:20:53.555Z,100659.81
2023-05-01T14:23:24.900Z,100664.59
2023-05-01T14:25:54.377Z,100662.84
2023-05-01T14:28:23.876Z,100654.47
2023-05-01T14:30:56.163Z,100648.28
2023-05-01T14:33:26.393Z,100652.78
2023-05-01T14:35:57.035Z,100654.25
2023-05-01T14:38:28.932Z,100648.91
2023-05-01T14:40:58.440Z,100654.53
2023-05-01T14:43:30.243Z,100650.94
2023-05-01T14:46:02.850Z,100648.84
2023-05-01T14:48:38.569Z,100638.84
2023-05-01T14:51:12.720Z,100651.72
2023-05-01T14:53:44.191Z,100634.06
2023-05-01T14:56:14.807Z,100638.25
2023-05-01T14:58:44.418Z,100638.00
2023-05-01T15:01:18.269Z,100633.56
2023-05-01T15:03:48.218Z,100646.72
2023-05-01T15:06:17.990Z,100641.81
2023-05-01T15:08:47.546Z,100639.47
2023-05-01T15:11:18.702Z,100635.59
2023-05-01T15:13:49.514Z,100641.91
2023-05-01T15:16:21.683Z,100634.91
2023-05-01T15:18:51.223Z,100618.78
2023-05-01T15:21:21.054Z,100644.56
2023-05-01T15:23:50.569Z,100640.00
2023-05-01T15:26:20.697Z,100640.16
2023-05-01T15:28:50.214Z,100633.34
2023-05-01T15:31:23.092Z,100639.91
2023-05-01T15:33:52.710Z,100608.28
2023-05-01T15:36:22.157Z,100635.25
2023-05-01T15:38:51.714Z,100635.59
2023-05-01T15:41:21.423Z,100630.84
2023-05-01T15:43:50.941Z,100629.34
2023-05-01T15:46:23.579Z,100622.28
2023-05-01T15:48:53.104Z,100621.94
2023-05-01T15:51:22.531Z,100634.81
2023-05-01T15:53:51.989Z,100609.53
2023-05-01T15:56:21.695Z,100620.34
2023-05-01T15:58:51.239Z,100622.00
2023-05-01T16:01:23.560Z,100623.31
2023-05-01T16:03:53.257Z,100624.25
2023-05-01T16:06:22.841Z,100623.81
2023-05-01T16:08:53.106Z,100625.81
2023-05-01T16:11:22.661Z,100628.22
2023-05-01T16:13:54.189Z,100619.22
2023-05-01T16:16:29.447Z,100616.13
2023-05-01T16:19:01.166Z,100623.78
2023-05-01T16:21:31.738Z,100617.50
2023-05-01T16:24:04.183Z,100616.19
2023-05-01T16:26:33.827Z,100622.38
2023-05-01T16:29:05.748Z,100595.13
2023-05-01T16:31:41.587Z,100614.28
2023-05-01T16:34:14.162Z,100620.47
2023-05-01T16:36:46.592Z,100610.59
2023-05-01T16:39:19.145Z,100623.34
2023-05-01T16:41:49.921Z,100623.97
2023-05-01T16:44:20.236Z,100616.44
2023-05-01T16:46:56.254Z,100620.06
2023-05-01T16:49:33.151Z,100618.84
2023-05-01T16:52:04.137Z,100621.97
2023-05-01T16:54:36.276Z,100617.56
2023-05-01T16:57:06.281Z,100626.03
2023-05-01T16:59:35.861Z,100619.47
2023-05-01T17:02:08.490Z,100607.47
2023-05-01T17:04:39.274Z,100622.69
2023-05-01T17:07:09.262Z,100617.13
2023-05-01T17:09:38.716Z,100617.03
2023-05-01T17:12:08.716Z,100622.16
2023-05-01T17:14:38.298Z,100624.63
2023-05-01T17:17:10.358Z,100633.97
2023-05-01T17:19:40.358Z,100630.88
2023-05-01T17:22:10.492Z,100627.78
2023-05-01T17:24:40.057Z,100628.47
2023-05-01T17:27:10.103Z,100628.72
2023-05-01T17:29:39.796Z,100628.63
2023-05-01T17:34:41.776Z,100634.25
2023-05-01T17:37:11.960Z,100627.94
2023-05-01T17:39:41.452Z,100633.53
2023-05-01T17:42:10.984Z,100627.69
2023-05-01T17:44:40.465Z,100632.34
2023-05-01T17:47:12.766Z,100633.06
2023-05-01T17:49:42.184Z,100632.72
2023-05-01T17:52:12.410Z,100636.75
2023-05-01T17:54:42.356Z,100634.03
2023-05-01T17:57:11.841Z,100637.81
2023-05-01T17:59:41.265Z,100633.63
2023-05-01T18:02:13.384Z,100644.22
2023-05-01T18:04:42.866Z,100642.19
2023-05-01T18:07:12.703Z,100643.97
2023-05-01T18:09:42.126Z,100645.28
2023-05-01T18:12:11.676Z,100644.94
2023-05-01T18:14:41.493Z,100654.47
2023-05-01T18:17:13.550Z,100645.03
2023-05-01T18:19:42.994Z,100654.81
2023-05-01T18:22:12.461Z,100655.75
2023-05-01T18:24:41.890Z,100661.47
2023-05-01T18:27:11.517Z,100658.72
2023-05-01T18:29:41.074Z,100661.72
2023-05-01T18:32:14.108Z,100668.25
2023-05-01T18:34:45.582Z,100669.78
2023-05-01T18:37:15.608Z,100671.81
2023-05-01T18:39:45.036Z,100677.97
2023-05-01T18:42:14.607Z,100666.19
2023-05-01T18:44:44.094Z,100678.31
2023-05-01T18:47:16.163Z,100674.50
2023-05-01T18:49:45.687Z,100680.91
2023-05-01T18:52:15.311Z,100686.38
2023-05-01T18:54:44.788Z,100688.50
2023-05-01T18:57:14.276Z,100688.03
2023-05-01T18:59:44.882Z,100682.66
2023-05-01T19:02:17.168Z,100691.44
2023-05-01T19:07:19.233Z,100685.25
2023-05-01T19:09:48.734Z,100687.72
2023-05-01T19:12:18.883Z,100683.63
2023-05-01T19:14:48.357Z,100692.41
2023-05-01T19:17:20.800Z,100691.22
2023-05-01T19:19:50.251Z,100702.47
2023-05-01T19:22:19.685Z,100704.13
2023-05-01T19:24:49.238Z,100703.53
2023-05-01T19:27:18.686Z,100708.78
2023-05-01T19:29:48.302Z,100706.66
2023-05-01T19:32:20.457Z,100712.03
2023-05-01T19:34:50.067Z,100712.97
2023-05-01T19:37:19.641Z,100712.97
2023-05-01T19:39:49.202Z,100709.84
2023-05-01T19:42:18.703Z,100716.84
2023-05-01T19:44:48.820Z,100714.31
2023-05-01T19:47:21.148Z,100725.25
2023-05-01T19:49:50.656Z,100727.78
2023-05-01T19:52:20.098Z,100734.97
2023-05-01T19:54:49.585Z,100738.34
2023-05-01T19:57:19.174Z,100739.38
2023-05-01T19:59:48.765Z,100745.16
2023-05-01T20:02:20.829Z,100744.53
2023-05-01T20:04:50.392Z,100751.28
2023-05-01T20:07:20.150Z,100759.19
2023-05-01T20:09:50.075Z,100749.66
2023-05-01T20:12:19.544Z,100760.78
2023-05-01T20:14:49.027Z,100755.31
2023-05-01T20:17:21.108Z,100764.28
2023-05-01T20:19:50.552Z,100769.84
2023-05-01T20:22:20.033Z,100770.41
2023-05-01T20:24:49.629Z,100773.63
2023-05-01T20:27:19.200Z,100775.28
2023-05-01T20:29:48.733Z,100774.38
2023-05-01T20:32:21.842Z,100779.84
2023-05-01T20:34:52.611Z,100777.34
2023-05-01T20:37:22.025Z,100782.91
2023-05-01T20:39:51.503Z,100790.38
2023-05-01T20:42:21.287Z,100785.53
2023-05-01T20:44:50.740Z,100792.91
2023-05-01T20:47:22.840Z,100797.09
2023-05-01T20:49:52.299Z,100802.09
2023-05-01T20:52:21.844Z,100810.38
2023-05-01T20:54:51.341Z,100814.41
2023-05-01T20:57:20.879Z,100811.47
2023-05-01T20:59:51.082Z,100814.09
2023-05-01T21:02:23.175Z,100820.56
2023-05-01T21:04:53.279Z,100820.56
2023-05-01T21:07:22.874Z,100825.19
2023-05-01T21:09:52.475Z,100837.19
2023-05-01T21:12:21.993Z,100843.97
2023-05-01T21:14:51.476Z,100854.63
2023-05-01T21:17:23.657Z,100860.94
2023-05-01T21:19:53.291Z,100853.19
2023-05-01T21:22:25.115Z,100858.03
2023-05-01T21:24:56.053Z,100867.94
2023-05-01T21:27:26.486Z,100864.53
2023-05-01T21:29:59.416Z,100868.72
2023-05-01T21:32:34.061Z,100882.16
2023-05-01T21:35:04.567Z,100876.06
2023-05-01T21:37:34.059Z,100880.06
2023-05-01T21:40:04.288Z,100877.56
2023-05-01T21:42:38.256Z,100879.63
2023-05-01T21:45:09.210Z,100875.25
2023-05-01T21:47:43.387Z,100869.38
2023-05-01T21:50:15.842Z,100871.50
2023-05-01T21:52:46.442Z,100874.66
2023-05-01T21:55:20.577Z,100870.91
2023-05-01T21:57:50.360Z,100868.59
2023-05-01T22:00:20.810Z,100867.56
2023-05-01T22:02:53.715Z,100876.53
2023-05-01T22:05:24.688Z,100877.81
2023-05-01T22:07:55.081Z,100875.50
2023-05-01T22:10:24.655Z,100887.84
2023-05-01T22:12:54.201Z,100882.03
2023-05-01T22:15:23.657Z,100884.75
2023-05-01T22:17:56.823Z,100884.09
2023-05-01T22:20:26.430Z,100889.13
2023-05-01T22:22:56.534Z,100890.59
2023-05-01T22:25:26.063Z,100889.78
2023-05-01T22:27:55.531Z,100895.22
2023-05-01T22:30:25.005Z,100906.50
2023-05-01T22:32:57.232Z,100903.97
2023-05-01T22:35:26.813Z,100907.56
2023-05-01T22:37:56.248Z,100906.69
2023-05-01T22:40:26.394Z,100906.47
2023-05-01T22:42:55.965Z,100909.00
2023-05-01T22:45:25.408Z,100907.13
2023-05-01T22:47:57.519Z,100917.56
2023-05-01T22:50:27.036Z,100908.59
2023-05-01T22:52:56.686Z,100905.22
2023-05-01T22:55:26.330Z,100918.00
2023-05-01T22:57:55.904Z,100917.34
2023-05-01T23:00:25.416Z,100915.84
2023-05-01T23:02:57.578Z,100907.81
2023-05-01T23:05:27.154Z,100915.16
2023-05-01T23:07:56.681Z,100916.69
2023-05-01T23:10:30.741Z,100922.13
2023-05-01T23:13:01.520Z,100917.94
2023-05-01T23:15:31.010Z,100916.66
2023-05-01T23:18:03.271Z,100918.59
2023-05-01T23:20:40.012Z,100925.25
2023-05-01T23:23:16.101Z,100920.06
2023-05-01T23:25:49.127Z,100921.03
2023-05-01T23:28:24.683Z,100926.88
2023-05-01T23:30:58.059Z,100922.78
2023-05-01T23:33:34.494Z,100921.00
2023-05-01T23:36:04.345Z,100922.72
2023-05-01T23:38:33.830Z,100931.91
2023-05-01T23:41:03.452Z,100934.19
2023-05-01T23:43:33.227Z,100931.06
2023-05-01T23:46:02.834Z,100934.41
2023-05-01T23:48:35.272Z,100930.25
2023-05-01T23:51:05.771Z,100929.81
2023-05-01T23:53:35.277Z,100931.69
2023-05-01T23:56:04.922Z,100923.69
2023-05-01T23:58:34.408Z,100940.59
